createdAt,value
2019-02-26T00:02:02.045Z,8.67
2019-02-26T00:04:29.824Z,7.27
2019-02-26T00:07:00.396Z,9.57
2019-02-26T00:09:29.956Z,9.20
2019-02-26T00:11:58.142Z,8.23
2019-02-26T00:14:27.612Z,11.73
2019-02-26T00:16:55.870Z,10.50
2019-02-26T00:19:23.410Z,12.20
2019-02-26T00:21:51.970Z,9.70
2019-02-26T00:24:20.229Z,9.30
2019-02-26T00:26:48.326Z,14.40
2019-02-26T00:29:15.713Z,9.67
2019-02-26T00:31:46.055Z,8.10
2019-02-26T00:34:14.010Z,9.70
2019-02-26T00:36:45.610Z,14.30
2019-02-26T00:39:32.136Z,9.83
2019-02-26T00:42:00.865Z,11.20
2019-02-26T00:44:32.212Z,9.73
2019-02-26T00:47:01.566Z,9.37
2019-02-26T00:49:30.212Z,8.30
2019-02-26T00:51:58.445Z,12.47
2019-02-26T00:54:29.107Z,9.90
2019-02-26T00:56:59.006Z,7.53
2019-02-26T00:59:26.411Z,12.93
2019-02-26T01:01:54.793Z,7.70
2019-02-26T01:04:23.803Z,11.70
2019-02-26T01:06:51.876Z,10.10
2019-02-26T01:09:19.517Z,9.00
2019-02-26T01:11:47.630Z,9.53
2019-02-26T01:14:18.036Z,14.57
2019-02-26T01:16:48.966Z,8.17
2019-02-26T01:19:17.509Z,17.43
2019-02-26T01:21:46.276Z,7.40
2019-02-26T01:24:13.805Z,9.70
2019-02-26T01:26:43.512Z,9.93
2019-02-26T01:29:11.202Z,7.53
2019-02-26T01:31:38.898Z,7.00
2019-02-26T01:34:06.590Z,7.40
2019-02-26T01:36:34.385Z,8.87
2019-02-26T01:39:02.552Z,8.80
2019-02-26T01:41:29.929Z,5.53
2019-02-26T01:43:57.879Z,6.23
2019-02-26T01:46:26.214Z,7.87
2019-02-26T01:48:55.213Z,6.93
2019-02-26T01:51:23.998Z,7.27
2019-02-26T01:53:53.672Z,8.90
2019-02-26T01:56:21.395Z,7.10
2019-02-26T01:58:56.389Z,6.57
2019-02-26T02:01:21.280Z,8.33
2019-02-26T02:03:48.791Z,8.10
2019-02-26T02:06:18.266Z,6.87
2019-02-26T02:08:48.085Z,5.97
2019-02-26T02:11:15.570Z,9.10
2019-02-26T02:13:43.838Z,7.20
2019-02-26T02:16:12.165Z,5.63
2019-02-26T02:18:43.781Z,5.20
2019-02-26T02:21:10.217Z,7.10
2019-02-26T02:23:38.289Z,7.10
2019-02-26T02:26:08.428Z,5.57
2019-02-26T02:28:36.561Z,5.87
2019-02-26T02:31:04.476Z,7.30
2019-02-26T02:33:34.924Z,8.03
2019-02-26T02:36:01.742Z,7.67
2019-02-26T02:38:29.124Z,6.13
2019-02-26T02:40:57.021Z,5.17
2019-02-26T02:43:24.688Z,5.87
2019-02-26T02:45:55.737Z,6.77
2019-02-26T02:48:22.919Z,5.60
2019-02-26T02:50:50.873Z,7.23
2019-02-26T02:53:21.008Z,6.40
2019-02-26T02:55:49.546Z,10.80
2019-02-26T02:58:20.510Z,4.77
2019-02-26T03:00:49.342Z,7.47
2019-02-26T03:03:16.942Z,7.83
2019-02-26T03:05:46.133Z,7.57
2019-02-26T03:08:15.898Z,7.10
2019-02-26T03:10:44.940Z,7.10
2019-02-26T03:13:14.402Z,6.10
2019-02-26T03:15:42.339Z,4.80
2019-02-26T03:18:12.006Z,6.07
2019-02-26T03:20:40.284Z,9.87
2019-02-26T03:23:11.410Z,4.83
2019-02-26T03:25:38.426Z,8.80
2019-02-26T03:28:05.733Z,9.23
2019-02-26T03:30:40.534Z,4.60
2019-02-26T03:33:05.450Z,5.83
2019-02-26T03:35:33.310Z,6.03
2019-02-26T03:38:03.469Z,5.80
2019-02-26T03:40:33.161Z,7.30
2019-02-26T03:43:01.461Z,4.70
2019-02-26T03:45:29.892Z,6.00
2019-02-26T03:47:58.635Z,6.00
2019-02-26T03:50:27.251Z,6.87
2019-02-26T03:52:55.101Z,6.03
2019-02-26T03:55:22.676Z,6.40
2019-02-26T03:57:54.422Z,11.60
2019-02-26T04:00:20.748Z,6.50
2019-02-26T04:02:51.262Z,5.57
2019-02-26T04:05:18.160Z,7.30
2019-02-26T04:07:49.046Z,12.03
2019-02-26T04:10:15.752Z,9.03
2019-02-26T04:12:45.016Z,6.07
2019-02-26T04:15:13.843Z,5.60
2019-02-26T04:17:42.234Z,7.30
2019-02-26T04:20:11.114Z,7.13
2019-02-26T04:22:42.728Z,6.20
2019-02-26T04:25:48.570Z,5.70
2019-02-26T04:28:27.350Z,5.20
2019-02-26T04:31:24.408Z,8.83
2019-02-26T04:34:19.137Z,6.63
2019-02-26T04:37:38.463Z,6.30
2019-02-26T04:40:36.315Z,7.03
2019-02-26T04:43:41.000Z,6.83
2019-02-26T04:46:31.113Z,8.43
2019-02-26T04:48:58.442Z,11.10
2019-02-26T04:51:26.471Z,7.00
2019-02-26T04:53:56.037Z,5.10
2019-02-26T04:56:23.370Z,5.97
2019-02-26T04:58:51.208Z,7.40
2019-02-26T05:01:19.987Z,7.47
2019-02-26T05:03:47.732Z,9.07
2019-02-26T05:06:16.328Z,7.10
2019-02-26T05:08:44.286Z,7.43
2019-02-26T05:11:15.099Z,5.63
2019-02-26T05:13:41.365Z,7.60
2019-02-26T05:16:09.141Z,6.57
2019-02-26T05:18:37.142Z,6.50
2019-02-26T05:21:07.503Z,7.70
2019-02-26T05:23:34.542Z,9.57
2019-02-26T05:26:05.251Z,6.50
2019-02-26T05:28:35.398Z,6.30
2019-02-26T05:31:03.082Z,4.63
2019-02-26T05:33:32.812Z,7.10
2019-02-26T05:36:00.205Z,9.20
2019-02-26T05:38:30.564Z,8.30
2019-02-26T05:40:58.388Z,9.77
2019-02-26T05:43:28.210Z,8.53
2019-02-26T05:46:00.426Z,7.10
2019-02-26T05:48:27.270Z,7.23
2019-02-26T05:50:57.350Z,10.00
2019-02-26T05:53:25.446Z,6.60
2019-02-26T05:55:54.084Z,13.37
2019-02-26T05:58:23.464Z,75.77
2019-02-26T06:00:51.905Z,32.13
2019-02-26T06:03:19.896Z,16.73
2019-02-26T06:05:48.968Z,12.40
2019-02-26T06:08:18.560Z,10.23
2019-02-26T06:10:46.742Z,8.60
2019-02-26T06:13:15.715Z,11.93
2019-02-26T06:15:43.539Z,10.23
2019-02-26T06:18:11.136Z,8.63
2019-02-26T06:20:38.913Z,11.67
2019-02-26T06:23:07.651Z,10.70
2019-02-26T06:25:35.942Z,12.40
2019-02-26T06:28:06.850Z,11.70
2019-02-26T06:30:33.939Z,17.13
2019-02-26T06:33:04.100Z,11.40
2019-02-26T06:35:32.013Z,11.37
2019-02-26T06:38:02.602Z,13.40
2019-02-26T06:40:34.548Z,13.10
2019-02-26T06:43:02.322Z,10.90
2019-02-26T06:45:30.386Z,13.47
2019-02-26T06:47:59.002Z,12.87
2019-02-26T06:50:26.893Z,13.03
2019-02-26T06:52:54.947Z,15.03
2019-02-26T06:55:23.529Z,11.53
2019-02-26T06:57:52.695Z,15.33
2019-02-26T07:00:24.355Z,13.83
2019-02-26T07:02:51.443Z,12.03
2019-02-26T07:05:19.299Z,12.60
2019-02-26T07:07:47.772Z,12.47
2019-02-26T07:10:19.019Z,15.70
2019-02-26T07:12:48.747Z,14.43
2019-02-26T07:15:30.185Z,16.43
2019-02-26T07:18:00.140Z,19.30
2019-02-26T07:20:34.061Z,18.97
2019-02-26T07:22:58.463Z,13.90
2019-02-26T07:25:26.232Z,17.23
2019-02-26T07:27:56.322Z,20.13
2019-02-26T07:30:24.484Z,13.63
2019-02-26T07:32:52.483Z,17.87
2019-02-26T07:35:20.274Z,12.17
2019-02-26T07:37:48.564Z,13.70
2019-02-26T07:40:18.580Z,14.30
2019-02-26T07:42:46.571Z,12.20
2019-02-26T07:45:19.600Z,11.53
2019-02-26T07:47:46.030Z,13.07
2019-02-26T07:50:14.552Z,11.57
2019-02-26T07:52:43.079Z,11.53
2019-02-26T07:55:12.031Z,13.70
2019-02-26T07:57:43.008Z,13.47
2019-02-26T08:00:12.938Z,15.13
2019-02-26T08:02:41.017Z,11.40
2019-02-26T08:05:10.053Z,11.93
2019-02-26T08:07:38.530Z,11.43
2019-02-26T08:10:10.532Z,13.30
2019-02-26T08:12:40.899Z,9.03
2019-02-26T08:15:12.724Z,15.63
2019-02-26T08:17:45.654Z,9.17
2019-02-26T08:20:14.600Z,13.63
2019-02-26T08:22:42.851Z,8.80
2019-02-26T08:25:11.337Z,8.77
2019-02-26T08:27:39.147Z,8.10
2019-02-26T08:30:09.858Z,9.93
2019-02-26T08:32:39.178Z,11.00
2019-02-26T08:35:07.117Z,9.07
2019-02-26T08:37:35.146Z,9.40
2019-02-26T08:40:03.863Z,11.00
2019-02-26T08:42:31.483Z,9.07
2019-02-26T08:44:59.291Z,6.50
2019-02-26T08:47:27.459Z,12.30
2019-02-26T08:49:56.342Z,8.63
2019-02-26T08:52:26.778Z,13.70
2019-02-26T08:54:54.661Z,7.00
2019-02-26T08:57:23.050Z,6.90
2019-02-26T08:59:54.545Z,5.77
2019-02-26T09:02:22.252Z,4.97
2019-02-26T09:04:50.212Z,7.03
2019-02-26T09:07:19.545Z,9.17
2019-02-26T09:09:48.161Z,6.60
2019-02-26T09:12:17.499Z,5.93
2019-02-26T09:14:48.110Z,4.43
2019-02-26T09:17:18.744Z,4.53
2019-02-26T09:19:45.509Z,6.67
2019-02-26T09:22:14.990Z,43.30
2019-02-26T09:24:43.380Z,49.60
2019-02-26T09:27:10.920Z,34.63
2019-02-26T09:29:39.709Z,22.90
2019-02-26T09:32:09.271Z,19.80
2019-02-26T09:34:39.939Z,12.63
2019-02-26T09:37:08.430Z,10.73
2019-02-26T09:39:38.917Z,6.30
2019-02-26T09:42:08.972Z,8.20
2019-02-26T09:44:36.244Z,6.60
2019-02-26T09:47:05.359Z,6.97
2019-02-26T09:49:33.760Z,5.30
2019-02-26T09:52:03.946Z,4.20
2019-02-26T09:54:37.763Z,4.77
2019-02-26T09:57:02.508Z,5.00
2019-02-26T09:59:31.363Z,6.27
2019-02-26T10:02:01.265Z,8.77
2019-02-26T10:04:29.408Z,4.17
2019-02-26T10:06:57.149Z,3.97
2019-02-26T10:09:25.035Z,9.60
2019-02-26T10:11:53.324Z,16.27
2019-02-26T10:14:20.852Z,16.27
2019-02-26T10:16:50.087Z,12.60
2019-02-26T10:19:43.759Z,9.67
2019-02-26T10:22:13.673Z,9.20
2019-02-26T10:24:41.315Z,11.10
2019-02-26T10:27:11.408Z,9.53
2019-02-26T10:29:41.954Z,9.97
2019-02-26T10:32:11.789Z,9.80
2019-02-26T10:34:40.045Z,7.17
2019-02-26T10:37:12.014Z,5.33
2019-02-26T10:39:39.807Z,8.97
2019-02-26T10:42:07.875Z,7.03
2019-02-26T10:44:35.555Z,4.80
2019-02-26T10:47:05.772Z,4.10
2019-02-26T10:49:33.837Z,9.53
2019-02-26T10:52:01.530Z,5.70
2019-02-26T10:54:39.272Z,5.63
2019-02-26T10:57:07.090Z,6.13
2019-02-26T10:59:33.280Z,5.90
2019-02-26T11:02:03.051Z,4.97
2019-02-26T11:04:34.709Z,6.03
2019-02-26T11:07:02.389Z,6.90
2019-02-26T11:09:31.929Z,7.63
2019-02-26T11:12:00.831Z,12.77
2019-02-26T11:14:31.191Z,8.90
2019-02-26T11:16:59.610Z,14.37
2019-02-26T11:19:33.271Z,8.20
2019-02-26T11:22:00.611Z,9.87
2019-02-26T11:24:30.270Z,9.73
2019-02-26T11:26:57.626Z,7.50
2019-02-26T11:29:26.135Z,6.13
2019-02-26T11:31:55.963Z,8.97
2019-02-26T11:34:25.409Z,8.37
2019-02-26T11:36:56.024Z,8.60
2019-02-26T11:39:23.166Z,7.50
2019-02-26T11:41:53.762Z,6.50
2019-02-26T11:44:22.146Z,8.47
2019-02-26T11:46:51.932Z,8.33
2019-02-26T11:49:21.795Z,6.00
2019-02-26T11:51:50.319Z,6.83
2019-02-26T11:54:18.219Z,5.67
2019-02-26T11:56:47.301Z,7.43
2019-02-26T11:59:16.886Z,7.00
2019-02-26T12:01:45.653Z,8.23
2019-02-26T12:04:16.544Z,8.50
2019-02-26T12:06:43.632Z,12.63
2019-02-26T12:09:14.224Z,5.97
2019-02-26T12:11:41.536Z,26.80
2019-02-26T12:14:10.964Z,19.97
2019-02-26T12:16:39.430Z,14.47
2019-02-26T12:19:08.741Z,13.13
2019-02-26T12:21:37.465Z,12.17
2019-02-26T12:24:06.645Z,7.20
2019-02-26T12:26:35.496Z,9.43
2019-02-26T12:29:04.453Z,10.10
2019-02-26T12:31:34.497Z,8.17
2019-02-26T12:34:02.115Z,5.30
2019-02-26T12:36:32.531Z,13.20
2019-02-26T12:39:02.276Z,7.87
2019-02-26T12:41:29.473Z,5.03
2019-02-26T12:43:59.353Z,4.73
2019-02-26T12:46:30.935Z,7.77
2019-02-26T12:48:58.137Z,4.23
2019-02-26T12:51:28.314Z,4.37
2019-02-26T12:53:56.294Z,4.17
2019-02-26T12:56:24.275Z,6.20
2019-02-26T12:58:54.470Z,3.50
2019-02-26T13:01:22.699Z,4.77
2019-02-26T13:03:55.063Z,4.10
2019-02-26T13:06:23.371Z,4.23
2019-02-26T13:08:51.409Z,5.70
2019-02-26T13:11:20.956Z,4.70
2019-02-26T13:13:52.343Z,3.73
2019-02-26T13:16:18.933Z,6.50
2019-02-26T13:18:47.968Z,16.00
2019-02-26T13:21:17.395Z,22.93
2019-02-26T13:23:45.415Z,24.60
2019-02-26T13:26:15.336Z,18.87
2019-02-26T13:28:46.731Z,13.40
2019-02-26T13:31:19.111Z,11.87
2019-02-26T13:33:46.403Z,12.23
2019-02-26T13:36:16.339Z,11.90
2019-02-26T13:38:48.309Z,11.63
2019-02-26T13:41:28.760Z,13.20
2019-02-26T13:43:44.848Z,17.33
2019-02-26T13:46:13.827Z,12.43
2019-02-26T13:48:41.599Z,16.77
2019-02-26T13:51:09.315Z,15.37
2019-02-26T13:53:38.332Z,16.33
2019-02-26T13:56:05.893Z,18.17
2019-02-26T13:58:34.093Z,14.63
2019-02-26T14:01:01.848Z,13.63
2019-02-26T14:03:29.435Z,19.00
2019-02-26T14:05:57.212Z,14.00
2019-02-26T14:08:24.929Z,15.70
2019-02-26T14:10:53.327Z,14.20
2019-02-26T14:13:20.880Z,16.70
2019-02-26T14:15:48.968Z,15.93
2019-02-26T14:18:16.571Z,16.27
2019-02-26T14:20:45.517Z,16.70
2019-02-26T14:23:13.455Z,19.10
2019-02-26T14:25:42.242Z,16.07
2019-02-26T14:28:10.248Z,16.43
2019-02-26T14:30:37.928Z,18.70
2019-02-26T14:33:05.871Z,18.33
2019-02-26T14:35:33.738Z,17.97
2019-02-26T14:38:01.946Z,14.93
2019-02-26T14:40:30.186Z,19.50
2019-02-26T14:42:57.889Z,17.77
2019-02-26T14:45:25.537Z,20.70
2019-02-26T14:47:53.665Z,22.60
2019-02-26T14:50:28.312Z,19.67
2019-02-26T14:52:59.896Z,16.93
2019-02-26T14:55:30.123Z,17.67
2019-02-26T14:57:58.002Z,14.17
2019-02-26T15:00:31.889Z,18.83
2019-02-26T15:03:01.247Z,14.47
2019-02-26T15:05:31.837Z,20.13
2019-02-26T15:08:01.664Z,14.87
2019-02-26T15:10:34.227Z,17.20
2019-02-26T15:13:04.181Z,13.83
2019-02-26T15:15:32.577Z,14.07
2019-02-26T15:18:03.378Z,13.80
2019-02-26T15:20:35.537Z,12.33
2019-02-26T15:23:06.908Z,15.63
2019-02-26T15:25:35.347Z,12.03
2019-02-26T15:28:05.302Z,10.20
2019-02-26T15:30:36.253Z,11.43
2019-02-26T15:33:10.744Z,10.20
2019-02-26T15:35:36.946Z,13.10
2019-02-26T15:38:04.719Z,8.93
2019-02-26T15:40:34.854Z,12.93
2019-02-26T15:43:02.299Z,10.00
2019-02-26T15:45:29.995Z,10.33
2019-02-26T15:47:57.731Z,8.50
2019-02-26T15:50:25.301Z,8.10
2019-02-26T15:52:55.368Z,8.90
2019-02-26T15:55:25.884Z,8.17
2019-02-26T15:57:53.860Z,10.83
2019-02-26T16:00:22.065Z,8.23
2019-02-26T16:02:52.868Z,10.40
2019-02-26T16:05:30.840Z,8.50
2019-02-26T16:08:09.996Z,8.40
2019-02-26T16:10:51.117Z,8.67
2019-02-26T16:13:30.238Z,9.80
2019-02-26T16:16:05.701Z,6.70
2019-02-26T16:18:39.447Z,8.43
2019-02-26T16:21:12.207Z,7.50
2019-02-26T16:23:44.526Z,10.87
2019-02-26T16:26:22.965Z,8.97
2019-02-26T16:28:52.013Z,8.43
2019-02-26T16:31:54.693Z,7.13
2019-02-26T16:34:35.092Z,7.90
2019-02-26T16:37:07.892Z,7.40
2019-02-26T16:40:05.002Z,5.50
2019-02-26T16:43:03.019Z,7.23
2019-02-26T16:45:35.086Z,8.07
2019-02-26T16:48:01.867Z,6.80
2019-02-26T16:50:36.043Z,7.87
2019-02-26T16:53:04.882Z,6.20
2019-02-26T16:55:37.167Z,7.40
2019-02-26T16:58:12.850Z,7.93
2019-02-26T17:00:42.194Z,8.07
2019-02-26T17:03:11.251Z,5.77
2019-02-26T17:05:41.219Z,9.20
2019-02-26T17:08:09.974Z,8.70
2019-02-26T17:10:44.877Z,7.70
2019-02-26T17:13:15.804Z,9.53
2019-02-26T17:15:45.648Z,9.77
2019-02-26T17:18:18.426Z,14.37
2019-02-26T17:20:51.858Z,12.30
2019-02-26T17:23:20.713Z,17.90
2019-02-26T17:25:49.738Z,10.80
2019-02-26T17:28:19.048Z,12.60
2019-02-26T17:30:49.024Z,14.10
2019-02-26T17:33:16.943Z,13.83
2019-02-26T17:35:45.190Z,14.93
2019-02-26T17:38:15.502Z,14.17
2019-02-26T17:40:47.211Z,15.33
2019-02-26T17:43:15.422Z,16.03
2019-02-26T17:45:45.733Z,15.00
2019-02-26T17:48:13.665Z,16.07
2019-02-26T17:50:43.357Z,14.00
2019-02-26T17:53:12.640Z,16.00
2019-02-26T17:55:41.552Z,14.97
2019-02-26T17:58:10.603Z,13.67
2019-02-26T18:00:40.743Z,10.27
2019-02-26T18:03:08.427Z,14.63
2019-02-26T18:05:50.437Z,13.90
2019-02-26T18:08:08.003Z,12.20
2019-02-26T18:10:36.754Z,14.90
2019-02-26T18:13:04.601Z,15.97
2019-02-26T18:15:32.350Z,21.03
2019-02-26T18:18:00.006Z,13.80
2019-02-26T18:20:28.758Z,15.90
2019-02-26T18:22:59.949Z,13.47
2019-02-26T18:25:26.688Z,12.43
2019-02-26T18:27:54.435Z,15.50
2019-02-26T18:30:22.396Z,10.83
2019-02-26T18:32:54.874Z,12.40
2019-02-26T18:35:21.715Z,17.00
2019-02-26T18:37:49.267Z,11.67
2019-02-26T18:40:16.957Z,13.03
2019-02-26T18:42:45.925Z,15.47
2019-02-26T18:45:16.787Z,10.50
2019-02-26T18:47:44.770Z,12.73
2019-02-26T18:50:13.599Z,12.00
2019-02-26T18:52:41.552Z,18.93
2019-02-26T18:55:12.704Z,20.70
2019-02-26T18:57:43.370Z,16.63
2019-02-26T19:00:13.114Z,16.50
2019-02-26T19:02:42.198Z,15.83
2019-02-26T19:05:10.417Z,11.60
2019-02-26T19:07:38.597Z,11.50
2019-02-26T19:10:08.115Z,11.53
2019-02-26T19:12:35.542Z,12.10
2019-02-26T19:15:03.242Z,14.57
2019-02-26T19:17:31.249Z,10.07
2019-02-26T19:20:02.803Z,10.97
2019-02-26T19:22:30.483Z,17.53
2019-02-26T19:24:58.621Z,13.53
2019-02-26T19:27:26.918Z,12.23
2019-02-26T19:29:55.581Z,11.13
2019-02-26T19:32:25.797Z,13.37
2019-02-26T19:34:53.667Z,17.37
2019-02-26T19:37:22.464Z,17.13
2019-02-26T19:39:52.858Z,15.07
2019-02-26T19:42:21.158Z,12.50
2019-02-26T19:44:48.693Z,16.40
2019-02-26T19:47:16.867Z,14.63
2019-02-26T19:49:44.870Z,20.70
2019-02-26T19:52:12.714Z,12.73
2019-02-26T19:54:42.019Z,16.30
2019-02-26T19:57:10.017Z,11.83
2019-02-26T19:59:38.563Z,15.10
2019-02-26T20:02:06.447Z,14.43
2019-02-26T20:04:38.275Z,19.33
2019-02-26T20:07:04.233Z,18.20
2019-02-26T20:09:32.064Z,15.83
2019-02-26T20:11:59.479Z,14.63
2019-02-26T20:14:27.480Z,17.03
2019-02-26T20:16:56.567Z,14.97
2019-02-26T20:19:24.399Z,14.67
2019-02-26T20:21:52.729Z,16.43
2019-02-26T20:24:20.638Z,14.43
2019-02-26T20:26:49.949Z,18.80
2019-02-26T20:29:19.326Z,18.60
2019-02-26T20:31:47.122Z,26.23
2019-02-26T20:34:15.597Z,27.50
2019-02-26T20:36:43.141Z,25.10
2019-02-26T20:39:11.265Z,23.50
2019-02-26T20:41:39.006Z,19.57
2019-02-26T20:44:07.836Z,19.50
2019-02-26T20:46:36.526Z,18.63
2019-02-26T20:49:04.297Z,18.67
2019-02-26T20:51:32.692Z,24.93
2019-02-26T20:54:00.831Z,20.77
2019-02-26T20:56:28.675Z,22.43
2019-02-26T20:58:58.551Z,22.20
2019-02-26T21:01:26.597Z,19.23
2019-02-26T21:03:54.375Z,18.23
2019-02-26T21:06:22.217Z,23.13
2019-02-26T21:08:50.001Z,16.40
2019-02-26T21:11:20.012Z,17.00
2019-02-26T21:13:46.936Z,18.60
2019-02-26T21:16:18.642Z,20.10
2019-02-26T21:18:46.903Z,14.03
2019-02-26T21:21:14.967Z,17.40
2019-02-26T21:23:42.820Z,19.20
2019-02-26T21:26:10.724Z,18.97
2019-02-26T21:28:38.919Z,19.30
2019-02-26T21:31:07.262Z,14.20
2019-02-26T21:33:35.696Z,16.67
2019-02-26T21:36:03.611Z,16.20
2019-02-26T21:38:31.490Z,12.97
2019-02-26T21:40:59.643Z,13.33
2019-02-26T21:43:27.064Z,14.00
2019-02-26T21:45:54.539Z,10.80
2019-02-26T21:48:22.121Z,13.13
2019-02-26T21:50:49.296Z,10.80
2019-02-26T21:53:16.909Z,14.03
2019-02-26T21:55:44.778Z,12.83
2019-02-26T21:58:12.446Z,10.63
2019-02-26T22:00:40.017Z,12.43
2019-02-26T22:03:07.495Z,11.03
2019-02-26T22:05:37.690Z,12.67
2019-02-26T22:08:05.250Z,14.00
2019-02-26T22:10:33.132Z,10.07
2019-02-26T22:13:01.220Z,13.17
2019-02-26T22:15:29.018Z,11.60
2019-02-26T22:17:58.334Z,10.37
2019-02-26T22:20:35.984Z,13.23
2019-02-26T22:22:57.846Z,15.00
2019-02-26T22:25:26.868Z,11.20
2019-02-26T22:27:54.734Z,13.27
2019-02-26T22:30:22.908Z,11.97
2019-02-26T22:32:51.160Z,10.20
2019-02-26T22:35:18.515Z,13.30
2019-02-26T22:37:46.013Z,13.60
2019-02-26T22:40:14.292Z,12.83
2019-02-26T22:42:42.148Z,15.60
2019-02-26T22:45:10.398Z,11.70
2019-02-26T22:47:40.465Z,11.70
2019-02-26T22:50:09.089Z,13.43
2019-02-26T22:52:37.155Z,12.53
2019-02-26T22:55:05.365Z,21.53
2019-02-26T22:57:33.135Z,10.73
2019-02-26T23:00:00.834Z,15.30
2019-02-26T23:02:29.816Z,13.90
2019-02-26T23:04:57.696Z,15.23
2019-02-26T23:07:25.965Z,13.67
2019-02-26T23:09:54.214Z,21.83
2019-02-26T23:12:22.044Z,16.07
2019-02-26T23:14:49.746Z,13.87
2019-02-26T23:17:17.514Z,13.60
2019-02-26T23:19:45.188Z,13.70
2019-02-26T23:22:13.185Z,14.40
2019-02-26T23:24:41.154Z,18.50
2019-02-26T23:27:08.661Z,15.30
2019-02-26T23:29:41.223Z,12.40
2019-02-26T23:32:09.454Z,19.27
2019-02-26T23:34:37.435Z,14.37
2019-02-26T23:37:05.831Z,13.93
2019-02-26T23:39:33.523Z,10.13
2019-02-26T23:42:05.842Z,12.17
2019-02-26T23:44:31.519Z,16.13
2019-02-26T23:47:01.679Z,11.60
2019-02-26T23:49:28.183Z,16.10
2019-02-26T23:51:55.931Z,19.07
2019-02-26T23:54:23.951Z,14.07
2019-02-26T23:56:52.093Z,11.80
2019-02-26T23:59:20.632Z,16.67
